createdAt,value
2022-08-17T00:00:51.791Z,101169.16
2022-08-17T00:03:23.911Z,101175.19
2022-08-17T00:05:55.633Z,101172.50
2022-08-17T00:08:27.344Z,101168.25
2022-08-17T00:10:59.665Z,101170.03
2022-08-17T00:13:32.604Z,101182.25
2022-08-17T00:16:05.360Z,101173.31
2022-08-17T00:19:01.221Z,101173.84
2022-08-17T00:21:26.006Z,101128.53
2022-08-17T00:24:15.829Z,101121.75
2022-08-17T00:26:47.986Z,101129.56
2022-08-17T00:29:20.053Z,101125.16
2022-08-17T00:31:50.023Z,101116.56
2022-08-17T00:34:19.931Z,101117.22
2022-08-17T00:36:49.417Z,101098.78
2022-08-17T00:39:18.937Z,101085.53
2022-08-17T00:41:51.061Z,101070.81
2022-08-17T00:44:20.575Z,101064.78
2022-08-17T00:46:51.302Z,101070.94
2022-08-17T00:49:23.703Z,101070.09
2022-08-17T00:51:56.301Z,101078.63
2022-08-17T00:54:28.646Z,101073.50
2022-08-17T00:57:05.941Z,101080.38
2022-08-17T00:59:41.109Z,101078.72
2022-08-17T01:02:12.774Z,101088.22
2022-08-17T01:04:42.280Z,101086.00
2022-08-17T01:07:12.211Z,101060.69
2022-08-17T01:09:43.037Z,101039.78
2022-08-17T01:12:15.186Z,101034.72
2022-08-17T01:14:44.704Z,101042.44
2022-08-17T01:17:14.435Z,101030.19
2022-08-17T01:19:45.492Z,101020.75
2022-08-17T01:22:23.113Z,101025.88
2022-08-17T01:24:54.850Z,101022.47
2022-08-17T01:27:24.634Z,101025.19
2022-08-17T01:29:58.603Z,101025.47
2022-08-17T01:32:28.706Z,101036.09
2022-08-17T01:34:58.186Z,101047.97
2022-08-17T01:37:34.592Z,101052.19
2022-08-17T01:40:08.797Z,101054.44
2022-08-17T01:42:41.469Z,101045.34
2022-08-17T01:45:13.685Z,101036.03
2022-08-17T01:47:43.432Z,101038.72
2022-08-17T01:50:15.903Z,101046.38
2022-08-17T01:52:49.359Z,101037.72
2022-08-17T01:55:24.613Z,101048.94
2022-08-17T01:57:56.699Z,101040.94
2022-08-17T02:00:26.370Z,101031.75
2022-08-17T02:03:15.855Z,101017.66
2022-08-17T02:05:45.363Z,101010.66
2022-08-17T02:08:20.132Z,100989.78
2022-08-17T02:10:50.608Z,100981.75
2022-08-17T02:13:22.102Z,100972.94
2022-08-17T02:15:51.632Z,100960.88
2022-08-17T02:18:21.153Z,100947.19
2022-08-17T02:20:50.619Z,100945.44
2022-08-17T02:23:23.382Z,100954.34
2022-08-17T02:25:53.024Z,100951.09
2022-08-17T02:28:22.497Z,100963.78
2022-08-17T02:31:01.794Z,100964.66
2022-08-17T02:33:41.965Z,100963.84
2022-08-17T02:36:13.924Z,100950.91
2022-08-17T02:38:46.362Z,100950.09
2022-08-17T02:41:15.822Z,100947.59
2022-08-17T02:43:45.363Z,100952.06
2022-08-17T02:46:15.395Z,100956.31
2022-08-17T02:48:44.870Z,100961.56
2022-08-17T02:51:14.311Z,100968.47
2022-08-17T02:53:49.475Z,100963.94
2022-08-17T02:56:18.941Z,100962.16
2022-08-17T02:58:48.441Z,100954.91
2022-08-17T03:01:18.503Z,100946.00
2022-08-17T03:03:48.043Z,100935.47
2022-08-17T03:06:17.555Z,100936.09
2022-08-17T03:08:49.651Z,100924.84
2022-08-17T03:11:19.190Z,100920.75
2022-08-17T03:13:48.704Z,100915.47
2022-08-17T03:16:18.205Z,100904.19
2022-08-17T03:18:49.099Z,100898.91
2022-08-17T03:21:18.583Z,100902.31
2022-08-17T03:23:54.746Z,100893.44
2022-08-17T03:26:24.331Z,100888.19
2022-08-17T03:28:59.152Z,100888.28
2022-08-17T03:31:28.655Z,100889.97
2022-08-17T03:33:58.157Z,100889.16
2022-08-17T03:36:28.370Z,100889.31
2022-08-17T03:39:00.399Z,100893.59
2022-08-17T03:41:29.897Z,100896.31
2022-08-17T03:43:59.414Z,100892.91
2022-08-17T03:46:41.702Z,100898.84
2022-08-17T03:49:24.033Z,100894.28
2022-08-17T03:52:06.156Z,100907.13
2022-08-17T03:54:50.719Z,100904.53
2022-08-17T03:57:20.396Z,100896.72
2022-08-17T03:59:50.052Z,100894.41
2022-08-17T04:02:22.357Z,100892.88
2022-08-17T04:04:52.842Z,100896.28
2022-08-17T04:07:23.134Z,100912.06
2022-08-17T04:09:55.231Z,100911.19
2022-08-17T04:12:25.868Z,100918.28
2022-08-17T04:14:55.462Z,100913.34
2022-08-17T04:17:26.383Z,100923.59
2022-08-17T04:19:56.821Z,100928.00
2022-08-17T04:22:30.189Z,100929.69
2022-08-17T04:25:09.143Z,100934.81
2022-08-17T04:27:38.741Z,100932.16
2022-08-17T04:30:09.986Z,100934.75
2022-08-17T04:33:05.146Z,100949.00
2022-08-17T04:35:38.395Z,100945.94
2022-08-17T04:38:08.453Z,100956.41
2022-08-17T04:40:53.187Z,100954.69
2022-08-17T04:43:24.463Z,100959.50
2022-08-17T04:45:57.013Z,100967.41
2022-08-17T04:48:35.410Z,100965.81
2022-08-17T04:51:10.680Z,100975.53
2022-08-17T04:53:41.343Z,100982.50
2022-08-17T04:56:16.784Z,100979.78
2022-08-17T04:58:47.941Z,100973.94
2022-08-17T05:01:23.419Z,100986.09
2022-08-17T05:03:54.418Z,100977.59
2022-08-17T05:06:24.022Z,100981.28
2022-08-17T05:08:53.612Z,100990.94
2022-08-17T05:11:26.100Z,101003.16
2022-08-17T05:13:56.195Z,101005.09
2022-08-17T05:16:26.792Z,101008.59
2022-08-17T05:18:56.702Z,101021.44
2022-08-17T05:21:26.337Z,101022.28
2022-08-17T05:23:58.426Z,101025.94
2022-08-17T05:26:31.597Z,101031.38
2022-08-17T05:29:05.982Z,101032.38
2022-08-17T05:31:35.432Z,101036.78
2022-08-17T05:34:04.911Z,101041.03
2022-08-17T05:36:43.580Z,101044.63
2022-08-17T05:39:16.816Z,101042.94
2022-08-17T05:41:50.613Z,101048.25
2022-08-17T05:44:20.078Z,101045.81
2022-08-17T05:46:52.181Z,101053.72
2022-08-17T05:49:25.430Z,101061.63
2022-08-17T05:52:20.406Z,101066.94
2022-08-17T05:55:02.270Z,101073.91
2022-08-17T05:57:43.619Z,101083.41
2022-08-17T06:00:29.987Z,101087.72
2022-08-17T06:03:07.503Z,101084.41
2022-08-17T06:05:46.724Z,101093.13
2022-08-17T06:08:24.791Z,101095.78
2022-08-17T06:11:06.223Z,101100.16
2022-08-17T06:13:53.279Z,101111.59
2022-08-17T06:16:34.091Z,101119.56
2022-08-17T06:19:07.337Z,101131.88
2022-08-17T06:21:39.362Z,101134.72
2022-08-17T06:24:11.521Z,101153.16
2022-08-17T06:26:44.263Z,101173.28
2022-08-17T06:29:23.057Z,101203.09
2022-08-17T06:31:52.553Z,101209.22
2022-08-17T06:34:22.147Z,101206.59
2022-08-17T06:36:56.547Z,101216.28
2022-08-17T06:39:38.601Z,101223.25
2022-08-17T06:43:00.850Z,101229.41
2022-08-17T06:45:11.673Z,101225.19
2022-08-17T06:47:47.514Z,101230.44
2022-08-17T06:50:21.121Z,101233.94
2022-08-17T06:52:55.315Z,101242.66
2022-08-17T06:55:28.989Z,101247.09
2022-08-17T06:58:15.621Z,101256.81
2022-08-17T07:00:55.318Z,101267.34
2022-08-17T07:03:38.442Z,101276.97
2022-08-17T07:06:11.583Z,101284.88
2022-08-17T07:08:54.210Z,101284.88
2022-08-17T07:11:29.725Z,101294.53
2022-08-17T07:14:07.468Z,101299.84
2022-08-17T07:16:44.078Z,101315.66
2022-08-17T07:19:15.205Z,101318.28
2022-08-17T07:21:51.734Z,101332.34
2022-08-17T07:24:35.517Z,101346.41
2022-08-17T07:27:10.917Z,101355.19
2022-08-17T07:29:44.055Z,101353.50
2022-08-17T07:32:19.015Z,101365.81
2022-08-17T07:35:11.213Z,101372.88
2022-08-17T07:37:41.754Z,101400.91
2022-08-17T07:40:29.220Z,101393.97
2022-08-17T07:43:15.522Z,101405.41
2022-08-17T07:46:30.754Z,101411.56
2022-08-17T07:49:22.786Z,101423.03
2022-08-17T07:52:47.738Z,101448.47
2022-08-17T07:54:50.826Z,101459.00
2022-08-17T07:57:38.171Z,101469.53
2022-08-17T08:00:31.799Z,101487.97
2022-08-17T08:03:16.609Z,101508.19
2022-08-17T08:06:01.336Z,101509.03
2022-08-17T08:08:34.193Z,101523.97
2022-08-17T08:11:09.859Z,101503.81
2022-08-17T08:13:43.940Z,101485.38
2022-08-17T08:16:27.124Z,101452.06
2022-08-17T08:18:58.712Z,101425.72
2022-08-17T08:21:38.308Z,101377.44
2022-08-17T08:24:30.176Z,101273.81
2022-08-17T08:27:08.150Z,101215.75
2022-08-17T08:29:44.998Z,101177.06
2022-08-17T08:32:21.030Z,101130.44
2022-08-17T08:35:01.683Z,101068.94
2022-08-17T08:37:43.167Z,100979.25
2022-08-17T08:40:24.819Z,100868.47
2022-08-17T08:43:05.062Z,100763.94
2022-08-17T08:45:40.795Z,100718.16
2022-08-17T08:48:53.123Z,100695.09
2022-08-17T08:51:15.447Z,100610.44
2022-08-17T08:53:54.722Z,100550.47
2022-08-17T08:56:30.391Z,100513.31
2022-08-17T08:59:04.907Z,100450.78
2022-08-17T09:01:40.507Z,100414.63
2022-08-17T09:04:26.969Z,100361.66
2022-08-17T09:07:03.866Z,100328.78
2022-08-17T09:09:42.447Z,100325.75
2022-08-17T09:12:17.092Z,100265.78
2022-08-17T09:14:53.008Z,100247.09
2022-08-17T09:17:25.405Z,100245.78
2022-08-17T09:19:58.294Z,100224.97
2022-08-17T09:22:33.273Z,100179.41
2022-08-17T09:25:10.958Z,100173.19
2022-08-17T09:28:00.731Z,100171.91
2022-08-17T09:30:33.626Z,100173.31
2022-08-17T09:33:05.349Z,100171.31
2022-08-17T09:35:39.512Z,100178.91
2022-08-17T09:38:20.068Z,100197.94
2022-08-17T09:40:55.799Z,100211.38
2022-08-17T09:43:30.720Z,100196.09
2022-08-17T09:46:04.544Z,100221.38
2022-08-17T09:48:39.070Z,100270.13
2022-08-17T09:51:12.125Z,100281.50
2022-08-17T09:53:44.552Z,100322.16
2022-08-17T09:56:43.732Z,100330.41
2022-08-17T09:59:27.789Z,100368.78
2022-08-17T10:02:19.890Z,100422.16
2022-08-17T10:04:52.698Z,100497.75
2022-08-17T10:07:25.440Z,100552.38
2022-08-17T10:10:00.718Z,100575.09
2022-08-17T10:12:43.147Z,100578.78
2022-08-17T10:15:22.707Z,100588.91
2022-08-17T10:18:08.138Z,100627.38
2022-08-17T10:20:44.509Z,100636.56
2022-08-17T10:23:29.466Z,100668.34
2022-08-17T10:26:18.403Z,100697.91
2022-08-17T10:28:55.128Z,100709.47
2022-08-17T10:31:36.553Z,100713.75
2022-08-17T10:34:29.883Z,100716.00
2022-08-17T10:37:14.999Z,100712.72
2022-08-17T10:39:52.982Z,100724.44
2022-08-17T10:42:30.868Z,100743.72
2022-08-17T10:45:08.542Z,100761.78
2022-08-17T10:48:04.694Z,100756.84
2022-08-17T10:50:52.869Z,100757.00
2022-08-17T10:54:07.089Z,100761.53
2022-08-17T10:56:46.917Z,100765.19
2022-08-17T10:59:50.417Z,100764.88
2022-08-17T11:02:27.529Z,100764.94
2022-08-17T11:05:08.934Z,100763.19
2022-08-17T11:07:49.491Z,100766.59
2022-08-17T11:10:29.087Z,100763.81
2022-08-17T11:13:04.751Z,100762.81
2022-08-17T11:15:47.476Z,100758.34
2022-08-17T11:18:33.809Z,100768.13
2022-08-17T11:21:52.713Z,100768.97
2022-08-17T11:24:24.177Z,100766.28
2022-08-17T11:27:07.669Z,100770.25
2022-08-17T11:29:53.100Z,100774.31
2022-08-17T11:32:47.486Z,100769.91
2022-08-17T11:35:34.929Z,100764.84
2022-08-17T11:38:19.378Z,100764.06
2022-08-17T11:41:13.626Z,100768.41
2022-08-17T11:44:15.670Z,100768.88
2022-08-17T11:47:14.426Z,100756.66
2022-08-17T11:50:12.395Z,100766.50
2022-08-17T11:52:47.045Z,100761.69
2022-08-17T11:55:57.984Z,100766.88
2022-08-17T11:58:43.077Z,100768.53
2022-08-17T12:01:16.105Z,100761.00
2022-08-17T12:03:56.987Z,100762.50
2022-08-17T12:06:48.364Z,100770.03
2022-08-17T12:09:25.098Z,100770.09
2022-08-17T12:12:12.781Z,100769.28
2022-08-17T12:17:40.503Z,100763.63
2022-08-17T12:20:15.598Z,100760.97
2022-08-17T12:22:53.420Z,100753.09
2022-08-17T12:25:31.443Z,100760.84
2022-08-17T12:28:06.119Z,100761.50
2022-08-17T12:30:38.643Z,100762.28
2022-08-17T12:33:27.797Z,100763.97
2022-08-17T12:36:00.679Z,100764.41
2022-08-17T12:38:33.153Z,100761.09
2022-08-17T12:41:26.889Z,100752.44
2022-08-17T12:44:01.820Z,100761.50
2022-08-17T12:46:33.754Z,100765.00
2022-08-17T12:49:29.646Z,100766.94
2022-08-17T12:52:06.180Z,100766.13
2022-08-17T12:54:42.338Z,100767.31
2022-08-17T12:57:19.983Z,100768.50
2022-08-17T12:59:53.371Z,100765.25
2022-08-17T13:02:28.546Z,100769.88
2022-08-17T13:04:59.621Z,100767.38
2022-08-17T13:07:31.405Z,100765.91
2022-08-17T13:10:01.227Z,100758.91
2022-08-17T13:12:38.471Z,100760.06
2022-08-17T13:15:08.939Z,100765.47
2022-08-17T13:17:38.979Z,100758.50
2022-08-17T13:20:17.457Z,100762.72
2022-08-17T13:22:55.716Z,100756.63
2022-08-17T13:25:25.390Z,100755.81
2022-08-17T13:27:58.431Z,100748.72
2022-08-17T13:30:32.653Z,100752.28
2022-08-17T13:33:04.846Z,100739.97
2022-08-17T13:35:50.214Z,100741.66
2022-08-17T13:38:39.439Z,100745.34
2022-08-17T13:41:09.109Z,100736.84
2022-08-17T13:43:49.713Z,100732.72
2022-08-17T13:46:24.371Z,100730.06
2022-08-17T13:49:02.632Z,100729.47
2022-08-17T13:51:35.926Z,100731.25
2022-08-17T13:54:30.114Z,100729.56
2022-08-17T13:57:04.656Z,100729.56
2022-08-17T13:59:55.125Z,100728.84
2022-08-17T14:02:28.371Z,100732.31
2022-08-17T14:05:00.871Z,100731.72
2022-08-17T14:07:33.829Z,100734.34
2022-08-17T14:10:07.055Z,100729.13
2022-08-17T14:12:37.849Z,100729.97
2022-08-17T14:15:11.898Z,100725.56
2022-08-17T14:17:41.540Z,100731.72
2022-08-17T14:20:14.150Z,100730.13
2022-08-17T14:22:48.325Z,100722.16
2022-08-17T14:25:19.762Z,100722.06
2022-08-17T14:27:52.623Z,100721.22
2022-08-17T14:30:29.837Z,100714.97
2022-08-17T14:33:02.139Z,100719.50
2022-08-17T14:35:31.931Z,100714.28
2022-08-17T14:38:02.155Z,100717.06
2022-08-17T14:40:31.692Z,100710.03
2022-08-17T14:43:01.362Z,100711.78
2022-08-17T14:45:33.889Z,100706.47
2022-08-17T14:48:07.644Z,100705.56
2022-08-17T14:50:38.444Z,100701.06
2022-08-17T14:53:08.982Z,100692.28
2022-08-17T14:55:40.467Z,100700.22
2022-08-17T14:58:10.451Z,100704.63
2022-08-17T15:00:43.691Z,100695.06
2022-08-17T15:03:15.492Z,100668.66
2022-08-17T15:05:46.407Z,100662.59
2022-08-17T15:08:16.659Z,100673.34
2022-08-17T15:10:49.251Z,100668.13
2022-08-17T15:13:21.822Z,100658.34
2022-08-17T15:15:54.522Z,100659.09
2022-08-17T15:18:25.026Z,100641.44
2022-08-17T15:20:54.766Z,100660.06
2022-08-17T15:23:27.086Z,100656.72
2022-08-17T15:25:57.628Z,100653.38
2022-08-17T15:28:27.300Z,100655.13
2022-08-17T15:30:59.417Z,100656.19
2022-08-17T15:33:31.879Z,100654.53
2022-08-17T15:36:03.861Z,100624.66
2022-08-17T15:38:39.197Z,100632.88
2022-08-17T15:41:10.174Z,100619.75
2022-08-17T15:43:40.174Z,100588.00
2022-08-17T15:46:15.455Z,100582.69
2022-08-17T15:48:46.306Z,100567.69
2022-08-17T15:51:17.507Z,100573.91
2022-08-17T15:53:50.782Z,100562.28
2022-08-17T15:56:20.570Z,100575.34
2022-08-17T15:58:50.870Z,100573.28
2022-08-17T16:01:57.378Z,100576.81
2022-08-17T16:04:29.711Z,100573.28
2022-08-17T16:07:00.454Z,100586.56
2022-08-17T16:09:30.197Z,100594.44
2022-08-17T16:11:59.759Z,100596.16
2022-08-17T16:14:33.587Z,100617.44
2022-08-17T16:17:39.098Z,100590.97
2022-08-17T16:19:59.599Z,100610.53
2022-08-17T16:22:35.011Z,100605.25
2022-08-17T16:25:06.402Z,100620.50
2022-08-17T16:27:35.927Z,100617.97
2022-08-17T16:30:06.046Z,100624.16
2022-08-17T16:32:38.280Z,100634.09
2022-08-17T16:35:10.690Z,100632.44
2022-08-17T16:37:40.305Z,100637.91
2022-08-17T16:40:15.463Z,100643.34
2022-08-17T16:42:45.558Z,100634.72
2022-08-17T16:45:18.413Z,100630.44
2022-08-17T16:47:51.044Z,100622.59
2022-08-17T16:50:22.489Z,100627.97
2022-08-17T16:52:53.101Z,100628.81
2022-08-17T16:55:24.337Z,100629.72
2022-08-17T16:57:53.856Z,100629.75
2022-08-17T17:00:23.410Z,100628.13
2022-08-17T17:02:56.478Z,100623.84
2022-08-17T17:05:31.274Z,100612.47
2022-08-17T17:08:07.746Z,100623.97
2022-08-17T17:10:41.555Z,100618.69
2022-08-17T17:13:14.493Z,100617.28
2022-08-17T17:15:57.346Z,100620.94
2022-08-17T17:18:38.911Z,100622.78
2022-08-17T17:21:09.006Z,100620.22
2022-08-17T17:23:45.130Z,100625.69
2022-08-17T17:26:27.362Z,100621.34
2022-08-17T17:29:07.991Z,100599.59
2022-08-17T17:31:42.940Z,100602.44
2022-08-17T17:34:18.011Z,100610.38
2022-08-17T17:36:51.882Z,100609.69
2022-08-17T17:39:23.522Z,100600.91
2022-08-17T17:41:56.228Z,100602.81
2022-08-17T17:44:28.994Z,100613.50
2022-08-17T17:47:02.838Z,100621.47
2022-08-17T17:49:37.173Z,100643.63
2022-08-17T17:52:14.572Z,100638.47
2022-08-17T17:54:55.287Z,100646.50
2022-08-17T17:57:32.330Z,100647.44
2022-08-17T18:00:08.010Z,100643.16
2022-08-17T18:02:51.264Z,100638.94
2022-08-17T18:05:36.796Z,100628.41
2022-08-17T18:08:13.406Z,100618.97
2022-08-17T18:10:50.283Z,100613.78
2022-08-17T18:13:27.604Z,100605.03
2022-08-17T18:16:01.026Z,100606.94
2022-08-17T18:18:40.381Z,100596.47
2022-08-17T18:21:19.473Z,100583.38
2022-08-17T18:23:50.895Z,100579.03
2022-08-17T18:26:39.373Z,100577.28
2022-08-17T18:29:25.443Z,100583.50
2022-08-17T18:32:27.551Z,100580.13
2022-08-17T18:34:59.595Z,100592.50
2022-08-17T18:37:44.919Z,100592.56
2022-08-17T18:40:31.963Z,100652.50
2022-08-17T18:43:06.924Z,100680.00
2022-08-17T18:45:41.301Z,100646.66
2022-08-17T18:48:33.040Z,100637.84
2022-08-17T18:51:04.494Z,100637.84
2022-08-17T18:53:40.903Z,100635.31
2022-08-17T18:56:27.899Z,100558.66
2022-08-17T18:59:14.697Z,100425.16
2022-08-17T19:01:52.770Z,100318.06
2022-08-17T19:04:36.572Z,100285.59
2022-08-17T19:07:28.235Z,100265.81
2022-08-17T19:10:08.564Z,100339.38
2022-08-17T19:12:42.738Z,100580.44
2022-08-17T19:15:14.858Z,100952.44
2022-08-17T19:17:48.606Z,101321.97
2022-08-17T19:20:21.357Z,101623.03
2022-08-17T19:23:08.483Z,101687.44
2022-08-17T19:25:45.433Z,101593.88
2022-08-17T19:28:22.618Z,101467.06
2022-08-17T19:30:53.767Z,101294.88
2022-08-17T19:33:23.263Z,101106.47
2022-08-17T19:36:00.748Z,101052.34
2022-08-17T19:38:39.574Z,101027.13
2022-08-17T19:41:17.176Z,101009.69
2022-08-17T19:44:12.263Z,100973.03
2022-08-17T19:46:49.977Z,100945.03
2022-08-17T19:49:34.476Z,100929.31
2022-08-17T19:52:24.142Z,100892.63
2022-08-17T19:54:59.156Z,100882.06
2022-08-17T19:57:40.087Z,100886.50
2022-08-17T20:00:13.026Z,100891.69
2022-08-17T20:02:50.683Z,100892.53
2022-08-17T20:05:23.439Z,100878.47
2022-08-17T20:07:57.019Z,100869.75
2022-08-17T20:10:45.219Z,100857.53
2022-08-17T20:13:33.028Z,100836.59
2022-08-17T20:16:03.851Z,100847.03
2022-08-17T20:18:38.230Z,100846.16
2022-08-17T20:21:20.348Z,100836.59
2022-08-17T20:23:55.785Z,100835.66
2022-08-17T20:26:28.930Z,100836.53
2022-08-17T20:29:37.623Z,100827.81
2022-08-17T20:32:32.378Z,100829.63
2022-08-17T20:35:08.635Z,100822.63
2022-08-17T20:37:43.141Z,100806.94
2022-08-17T20:40:25.967Z,100819.97
2022-08-17T20:42:55.650Z,100826.06
2022-08-17T20:45:55.336Z,100817.38
2022-08-17T20:48:38.375Z,100819.06
2022-08-17T20:51:22.348Z,100812.06
2022-08-17T20:54:09.857Z,100805.03
2022-08-17T20:56:57.829Z,100805.97
2022-08-17T21:00:03.696Z,100802.38
2022-08-17T21:02:33.236Z,100804.13
2022-08-17T21:05:41.422Z,100816.31
2022-08-17T21:08:19.366Z,100815.41
2022-08-17T21:10:49.422Z,100832.84
2022-08-17T21:13:53.195Z,100838.97
2022-08-17T21:16:47.395Z,100833.75
2022-08-17T21:19:48.982Z,100837.34
2022-08-17T21:22:34.563Z,100829.41
2022-08-17T21:25:17.311Z,100832.88
2022-08-17T21:27:52.425Z,100827.59
2022-08-17T21:30:47.653Z,100825.00
2022-08-17T21:33:27.121Z,100827.66
2022-08-17T21:36:18.220Z,100815.44
2022-08-17T21:39:06.449Z,100804.91
2022-08-17T21:41:52.792Z,100805.81
2022-08-17T21:44:30.924Z,100804.06
2022-08-17T21:47:16.755Z,100819.72
2022-08-17T21:49:46.386Z,100816.19
2022-08-17T21:52:17.682Z,100819.66
2022-08-17T21:54:52.216Z,100814.41
2022-08-17T21:57:27.592Z,100807.44
2022-08-17T22:00:00.518Z,100807.44
2022-08-17T22:02:32.153Z,100801.41
2022-08-17T22:05:03.550Z,100806.53
2022-08-17T22:07:38.430Z,100811.69
2022-08-17T22:10:10.071Z,100814.19
2022-08-17T22:12:43.190Z,100819.38
2022-08-17T22:15:20.557Z,100822.09
2022-08-17T22:17:50.933Z,100824.66
2022-08-17T22:20:22.938Z,100816.81
2022-08-17T22:23:22.111Z,100823.81
2022-08-17T22:26:02.547Z,100819.44
2022-08-17T22:28:44.331Z,100813.31
2022-08-17T22:31:15.427Z,100814.13
2022-08-17T22:33:48.999Z,100804.72
2022-08-17T22:36:29.096Z,100816.03
2022-08-17T22:39:00.260Z,100813.44
2022-08-17T22:41:40.727Z,100810.00
2022-08-17T22:44:19.366Z,100799.50
2022-08-17T22:47:06.723Z,100799.50
2022-08-17T22:49:53.248Z,100805.47
2022-08-17T22:52:33.650Z,100818.59
2022-08-17T22:55:33.835Z,100809.00
2022-08-17T22:58:16.486Z,100820.28
2022-08-17T23:00:49.932Z,100817.66
2022-08-17T23:03:21.338Z,100816.75
2022-08-17T23:06:04.922Z,100813.25
2022-08-17T23:08:36.934Z,100826.22
2022-08-17T23:11:09.283Z,100819.38
2022-08-17T23:13:40.383Z,100829.72
2022-08-17T23:16:14.906Z,100825.31
2022-08-17T23:18:46.106Z,100826.09
2022-08-17T23:21:16.033Z,100834.78
2022-08-17T23:23:56.200Z,100833.88
2022-08-17T23:26:27.767Z,100832.03
2022-08-17T23:28:57.269Z,100838.97
2022-08-17T23:31:32.995Z,100841.34
2022-08-17T23:34:02.676Z,100845.72
2022-08-17T23:36:32.523Z,100845.66
2022-08-17T23:39:02.059Z,100851.75
2022-08-17T23:41:33.666Z,100855.19
2022-08-17T23:44:03.673Z,100848.22
2022-08-17T23:46:35.938Z,100851.59
2022-08-17T23:49:06.715Z,100849.81
2022-08-17T23:51:39.750Z,100848.97
2022-08-17T23:54:13.603Z,100849.78
2022-08-17T23:56:45.606Z,100851.56
2022-08-17T23:59:15.605Z,100850.81
